Time;durP1;ratioP1;P1;durP2;ratioP2;P2;SDS_P1;SDS_P2;PMS_P1;PMS_P2;Temp;Humidity;BMP_temperature;BMP_pressure;BME280_temperature;BME280_humidity;BME280_pressure;Samples;Min_cycle;Max_cycle;Signal;HPM_P1;HPM_P2
2023/05/05 00:01:58;;;;;;;0.60;0.60;;;16.60;99.90;;;;;;5039146;28;20296;-63
2023/05/05 00:04:26;;;;;;;1.13;0.68;;;16.60;99.90;;;;;;5036033;28;20200;-63
2023/05/05 00:06:54;;;;;;;1.30;0.60;;;16.60;99.90;;;;;;5036510;28;20284;-63
2023/05/05 00:09:23;;;;;;;0.70;0.60;;;16.50;99.90;;;;;;5035577;28;20734;-64
2023/05/05 00:11:51;;;;;;;0.60;0.50;;;16.50;99.90;;;;;;5108127;22;20693;-72
2023/05/05 00:14:19;;;;;;;0.70;0.60;;;16.50;99.90;;;;;;5040793;28;20208;-71
2023/05/05 00:16:47;;;;;;;0.60;0.40;;;16.50;99.90;;;;;;5041486;28;21326;-71
2023/05/05 00:19:14;;;;;;;0.95;0.73;;;16.40;99.90;;;;;;5049140;28;20214;-72
2023/05/05 00:21:42;;;;;;;0.60;0.50;;;16.50;99.90;;;;;;5034498;28;20287;-71
2023/05/05 00:24:10;;;;;;;0.60;0.50;;;16.60;99.90;;;;;;5030497;28;20239;-71
2023/05/05 00:26:39;;;;;;;0.63;0.50;;;16.60;99.90;;;;;;5026687;28;20335;-71
2023/05/05 00:29:07;;;;;;;0.60;0.40;;;16.60;99.90;;;;;;5026969;28;20210;-71
2023/05/05 00:31:36;;;;;;;0.57;0.43;;;16.60;99.90;;;;;;5029088;28;20317;-71
2023/05/05 00:34:04;;;;;;;0.60;0.50;;;16.70;99.90;;;;;;5032198;28;20209;-71
2023/05/05 00:36:32;;;;;;;0.60;0.50;;;16.70;99.90;;;;;;5033192;28;20295;-70
2023/05/05 00:39:00;;;;;;;0.63;0.50;;;16.70;99.90;;;;;;5033103;28;20683;-69
2023/05/05 00:41:28;;;;;;;0.82;0.82;;;16.70;99.90;;;;;;5026624;28;20312;-69
2023/05/05 00:43:57;;;;;;;0.60;0.50;;;16.70;99.90;;;;;;5029841;28;20675;-71
2023/05/05 00:46:27;;;;;;;0.60;0.50;;;16.70;99.90;;;;;;5019808;28;20215;-69
2023/05/05 00:48:58;;;;;;;0.60;0.50;;;16.80;99.90;;;;;;5020356;28;20213;-69
2023/05/05 00:51:27;;;;;;;0.60;0.50;;;16.70;99.90;;;;;;5029685;28;20717;-69
2023/05/05 00:53:55;;;;;;;0.80;0.50;;;16.70;99.90;;;;;;5027206;28;20800;-69
2023/05/05 00:56:26;;;;;;;0.90;0.68;;;16.60;99.90;;;;;;5032583;28;20274;-70
2023/05/05 00:58:54;;;;;;;0.60;0.50;;;16.60;99.90;;;;;;5032351;28;20286;-69
2023/05/05 01:01:23;;;;;;;0.60;0.50;;;16.60;99.90;;;;;;5029320;28;20232;-70
2023/05/05 01:03:51;;;;;;;0.80;0.70;;;16.60;99.90;;;;;;5028667;28;20209;-70
2023/05/05 01:06:35;;;;;;;0.60;0.40;;;16.60;99.90;;;;;;5029530;28;20209;-70
2023/05/05 01:09:10;;;;;;;0.60;0.40;;;16.60;99.90;;;;;;5027689;28;20211;-70
2023/05/05 01:11:46;;;;;;;1.15;0.93;;;16.50;99.90;;;;;;5031537;28;20259;-69
2023/05/05 01:14:17;;;;;;;0.70;0.40;;;16.30;99.90;;;;;;5031641;28;20290;-69
2023/05/05 01:16:58;;;;;;;0.73;0.50;;;16.10;99.90;;;;;;5032449;28;20212;-69
2023/05/05 01:19:50;;;;;;;0.73;0.60;;;16.10;99.90;;;;;;5027858;28;20741;-69
2023/05/05 01:22:22;;;;;;;0.65;0.63;;;16.00;99.90;;;;;;5023550;28;20315;-70
2023/05/05 01:25:12;;;;;;;0.70;0.52;;;16.00;99.90;;;;;;5034239;28;20213;-70
2023/05/05 01:27:55;;;;;;;0.63;0.55;;;15.90;99.90;;;;;;5027893;28;20765;-70
2023/05/05 01:30:41;;;;;;;0.70;0.50;;;15.80;99.90;;;;;;5031083;28;20310;-70
2023/05/05 01:33:14;;;;;;;0.60;0.50;;;15.70;99.90;;;;;;5029554;28;20287;-70
2023/05/05 01:35:47;;;;;;;0.60;0.40;;;15.60;99.90;;;;;;5031677;28;20249;-70
2023/05/05 01:38:16;;;;;;;0.60;0.40;;;15.40;99.90;;;;;;5031587;28;20570;-72
2023/05/05 01:40:48;;;;;;;0.70;0.55;;;15.40;99.90;;;;;;5019654;28;20704;-70
2023/05/05 01:43:19;;;;;;;0.60;0.50;;;15.50;99.90;;;;;;5024394;28;20232;-71
2023/05/05 01:45:49;;;;;;;0.80;0.63;;;15.50;99.90;;;;;;5019671;28;20585;-71
2023/05/05 01:48:20;;;;;;;0.70;0.50;;;15.60;99.90;;;;;;5025233;28;20205;-71
2023/05/05 01:50:49;;;;;;;0.60;0.52;;;15.50;99.90;;;;;;5027834;28;20718;-71
2023/05/05 01:53:20;;;;;;;0.60;0.47;;;15.60;99.90;;;;;;5030828;28;20215;-70
2023/05/05 01:55:49;;;;;;;0.60;0.50;;;15.60;99.90;;;;;;5023560;28;20218;-70
2023/05/05 01:58:17;;;;;;;0.90;0.55;;;15.60;99.90;;;;;;5028306;28;20300;-71
2023/05/05 02:00:46;;;;;;;0.60;0.50;;;15.60;99.90;;;;;;5023249;28;20491;-71
2023/05/05 02:03:16;;;;;;;0.80;0.50;;;15.60;99.90;;;;;;5027703;28;20291;-71
2023/05/05 02:05:47;;;;;;;0.60;0.45;;;15.50;99.90;;;;;;5026252;28;20205;-71
2023/05/05 02:08:16;;;;;;;1.13;1.02;;;15.60;99.90;;;;;;5026699;28;20205;-70
2023/05/05 02:10:45;;;;;;;0.55;0.40;;;15.50;99.90;;;;;;5025584;28;20275;-71
2023/05/05 02:13:14;;;;;;;1.35;0.70;;;15.60;99.90;;;;;;5026542;28;20291;-70
2023/05/05 02:15:43;;;;;;;0.60;0.40;;;15.60;99.90;;;;;;5026199;28;20211;-71
2023/05/05 02:18:12;;;;;;;0.80;0.75;;;15.60;99.90;;;;;;5028624;28;20616;-70
2023/05/05 02:20:41;;;;;;;0.68;0.60;;;15.50;99.90;;;;;;5025061;28;20282;-70
2023/05/05 02:23:10;;;;;;;0.60;0.40;;;15.40;99.90;;;;;;5028098;28;20232;-71
2023/05/05 02:25:43;;;;;;;0.60;0.60;;;15.40;99.90;;;;;;5027224;28;20212;-70
2023/05/05 02:28:21;;;;;;;0.60;0.40;;;15.40;99.90;;;;;;5027742;28;20291;-70
2023/05/05 02:30:55;;;;;;;0.60;0.50;;;15.40;99.90;;;;;;5025191;28;20266;-71
2023/05/05 02:33:25;;;;;;;0.60;0.47;;;15.30;99.90;;;;;;5023961;28;20888;-70
2023/05/05 02:35:55;;;;;;;0.60;0.47;;;15.20;99.90;;;;;;5029178;28;20331;-71
2023/05/05 02:38:28;;;;;;;0.70;0.50;;;15.20;99.90;;;;;;5026960;28;20679;-71
2023/05/05 02:40:59;;;;;;;0.70;0.60;;;15.20;99.90;;;;;;5023335;28;20311;-71
2023/05/05 02:43:31;;;;;;;0.70;0.70;;;15.20;99.90;;;;;;5025877;28;20675;-71
2023/05/05 02:45:58;;;;;;;1.45;0.80;;;15.20;99.90;;;;;;5026817;28;20203;-71
2023/05/05 02:48:28;;;;;;;1.00;0.60;;;15.10;99.90;;;;;;5025663;28;20201;-71
2023/05/05 02:50:56;;;;;;;0.70;0.60;;;15.00;99.90;;;;;;5023594;28;20235;-71
2023/05/05 02:53:27;;;;;;;0.60;0.50;;;15.00;99.90;;;;;;5023053;28;20750;-70
2023/05/05 02:56:01;;;;;;;0.70;0.60;;;15.00;99.90;;;;;;5022342;28;20204;-70
2023/05/05 02:58:34;;;;;;;0.60;0.50;;;15.00;99.90;;;;;;5027529;28;20224;-71
2023/05/05 03:01:11;;;;;;;0.70;0.60;;;15.00;99.90;;;;;;5025719;28;20310;-71
2023/05/05 03:03:44;;;;;;;0.60;0.40;;;15.00;99.90;;;;;;5024732;28;20200;-69
2023/05/05 03:06:16;;;;;;;0.70;0.60;;;15.00;99.90;;;;;;5022588;28;20262;-69
2023/05/05 03:08:53;;;;;;;0.60;0.50;;;15.10;99.90;;;;;;5019469;28;20200;-69
2023/05/05 03:11:27;;;;;;;0.82;0.68;;;15.00;99.90;;;;;;5025044;28;20318;-69
2023/05/05 03:14:04;;;;;;;0.90;0.70;;;15.00;99.90;;;;;;5026923;28;20291;-69
2023/05/05 03:16:34;;;;;;;0.65;0.52;;;15.00;99.90;;;;;;5023605;28;20757;-70
2023/05/05 03:19:03;;;;;;;0.70;0.60;;;15.00;99.90;;;;;;5025285;28;20224;-70
2023/05/05 03:21:32;;;;;;;0.70;0.70;;;15.00;99.90;;;;;;5026910;28;20235;-70
2023/05/05 03:24:12;;;;;;;1.00;0.80;;;14.90;99.90;;;;;;5025904;28;20209;-69
2023/05/05 03:26:40;;;;;;;0.70;0.60;;;14.90;99.90;;;;;;5024361;28;20776;-70
2023/05/05 03:29:07;;;;;;;0.70;0.70;;;14.90;99.90;;;;;;5022061;28;20207;-70
2023/05/05 03:31:35;;;;;;;0.70;0.50;;;14.90;99.90;;;;;;5019458;28;20271;-71
2023/05/05 03:34:03;;;;;;;0.65;0.60;;;14.90;99.90;;;;;;5022439;28;20567;-71
2023/05/05 03:36:31;;;;;;;0.90;0.50;;;15.00;99.90;;;;;;5024577;28;20299;-71
2023/05/05 03:39:01;;;;;;;0.93;0.65;;;15.00;99.90;;;;;;5026607;28;20227;-71
2023/05/05 03:41:29;;;;;;;0.85;0.50;;;15.00;99.90;;;;;;5027800;28;20240;-71
2023/05/05 03:43:57;;;;;;;0.70;0.57;;;15.00;99.90;;;;;;5030329;28;20462;-71
2023/05/05 03:46:24;;;;;;;0.88;0.45;;;14.90;99.90;;;;;;5029910;28;20209;-70
2023/05/05 03:48:55;;;;;;;0.60;0.50;;;14.90;99.90;;;;;;5029662;28;20205;-70
2023/05/05 03:51:24;;;;;;;0.52;0.40;;;15.00;99.90;;;;;;5033193;28;20268;-72
2023/05/05 03:53:52;;;;;;;0.88;0.70;;;15.00;99.90;;;;;;5033677;28;20240;-71
2023/05/05 03:56:21;;;;;;;0.60;0.50;;;15.10;99.90;;;;;;5030029;28;20232;-71
2023/05/05 03:58:49;;;;;;;0.80;0.80;;;15.10;99.90;;;;;;5029736;28;20707;-71
2023/05/05 04:01:16;;;;;;;0.73;0.63;;;15.00;99.90;;;;;;5029088;28;20296;-71
2023/05/05 04:03:44;;;;;;;0.60;0.50;;;15.00;99.90;;;;;;5027065;28;20212;-73
2023/05/05 04:06:12;;;;;;;0.80;0.65;;;14.80;99.90;;;;;;5024798;28;20255;-74
2023/05/05 04:08:40;;;;;;;0.50;0.40;;;14.80;99.90;;;;;;5024247;28;20698;-74
2023/05/05 04:11:08;;;;;;;0.77;0.50;;;14.80;99.90;;;;;;5030300;28;20243;-71
2023/05/05 04:13:37;;;;;;;0.60;0.57;;;14.80;99.90;;;;;;5028434;28;20212;-73
2023/05/05 04:16:05;;;;;;;1.00;0.65;;;14.80;99.90;;;;;;5029969;28;20686;-73
2023/05/05 04:18:33;;;;;;;1.13;0.70;;;14.90;99.90;;;;;;5030633;28;20204;-73
2023/05/05 04:21:01;;;;;;;0.65;0.52;;;14.80;99.90;;;;;;5029497;28;20231;-74
2023/05/05 04:23:30;;;;;;;1.10;0.50;;;14.80;99.90;;;;;;5028132;28;20288;-74
2023/05/05 04:25:58;;;;;;;1.20;0.70;;;14.80;99.90;;;;;;5029672;28;20712;-74
2023/05/05 04:28:25;;;;;;;0.90;0.70;;;14.70;99.90;;;;;;5030771;28;20215;-73
2023/05/05 04:30:55;;;;;;;0.60;0.50;;;14.80;99.90;;;;;;5027459;28;20303;-74
2023/05/05 04:33:22;;;;;;;1.88;0.70;;;14.80;99.90;;;;;;5027078;28;20204;-73
2023/05/05 04:35:50;;;;;;;3.50;1.20;;;14.80;99.90;;;;;;5023120;28;20208;-71
2023/05/05 04:38:19;;;;;;;1.90;0.70;;;14.90;99.90;;;;;;5027438;28;20267;-71
2023/05/05 04:40:47;;;;;;;1.20;0.55;;;14.90;99.90;;;;;;5028588;28;20225;-72
2023/05/05 04:43:15;;;;;;;0.60;0.60;;;15.00;99.90;;;;;;5027928;28;20212;-70
2023/05/05 04:45:52;;;;;;;0.80;0.70;;;15.00;99.90;;;;;;5027108;28;20209;-71
2023/05/05 04:48:21;;;;;;;0.70;0.63;;;15.10;99.90;;;;;;5032910;28;20193;-71
2023/05/05 04:50:50;;;;;;;0.80;0.80;;;15.20;99.90;;;;;;5032714;28;20672;-72
2023/05/05 04:53:17;;;;;;;0.70;0.60;;;15.30;99.90;;;;;;5028948;28;20699;-72
2023/05/05 04:55:45;;;;;;;0.60;0.60;;;15.30;99.90;;;;;;5023531;28;20288;-73
2023/05/05 04:58:13;;;;;;;0.60;0.50;;;15.40;99.90;;;;;;5027312;28;20283;-72
2023/05/05 05:00:41;;;;;;;0.60;0.50;;;15.50;99.90;;;;;;5028198;28;20300;-72
2023/05/05 05:03:09;;;;;;;0.60;0.60;;;15.50;99.90;;;;;;5027223;28;20697;-72
2023/05/05 05:05:38;;;;;;;0.70;0.60;;;15.60;99.90;;;;;;5024313;28;20209;-72
2023/05/05 05:08:06;;;;;;;0.60;0.57;;;15.70;99.90;;;;;;5030337;28;20215;-72
2023/05/05 05:10:35;;;;;;;0.60;0.57;;;15.70;99.90;;;;;;5026513;28;20235;-73
2023/05/05 05:13:03;;;;;;;0.60;0.50;;;15.70;99.90;;;;;;5029638;28;20608;-72
2023/05/05 05:15:31;;;;;;;0.90;0.88;;;15.60;99.90;;;;;;5028439;28;20287;-72
2023/05/05 05:17:59;;;;;;;0.70;0.60;;;15.70;99.90;;;;;;5027582;28;20295;-72
2023/05/05 05:20:27;;;;;;;0.63;0.60;;;15.70;99.90;;;;;;5020413;28;20225;-71
2023/05/05 05:22:56;;;;;;;0.70;0.52;;;15.70;99.90;;;;;;5019397;28;20287;-72
2023/05/05 05:25:24;;;;;;;1.08;0.98;;;15.60;99.90;;;;;;5025725;28;20219;-72
2023/05/05 05:27:52;;;;;;;4.68;0.75;;;15.50;99.90;;;;;;5025222;28;20215;-71
2023/05/05 05:30:36;;;;;;;0.80;0.80;;;15.40;99.90;;;;;;5024851;28;20256;-71
2023/05/05 05:33:04;;;;;;;0.60;0.40;;;15.30;99.90;;;;;;5027124;28;20672;-72
2023/05/05 05:35:32;;;;;;;0.80;0.80;;;15.40;99.90;;;;;;5029178;28;20212;-72
2023/05/05 05:38:01;;;;;;;0.60;0.40;;;15.40;99.90;;;;;;5021022;28;20249;-72
2023/05/05 05:40:30;;;;;;;0.60;0.60;;;15.50;99.90;;;;;;5026898;28;20307;-72
2023/05/05 05:42:58;;;;;;;0.70;0.70;;;15.70;99.90;;;;;;5031422;28;20279;-72
2023/05/05 05:45:26;;;;;;;0.70;0.70;;;15.80;99.90;;;;;;5023026;28;20204;-71
2023/05/05 05:47:53;;;;;;;1.00;0.95;;;15.90;99.90;;;;;;5030981;28;20215;-71
2023/05/05 05:50:23;;;;;;;1.15;1.00;;;15.80;99.90;;;;;;5030687;28;20216;-73
2023/05/05 05:52:51;;;;;;;0.60;0.50;;;15.80;99.90;;;;;;5019344;28;20212;-72
2023/05/05 05:55:20;;;;;;;1.33;1.23;;;15.80;99.90;;;;;;5031119;28;20631;-71
2023/05/05 05:57:48;;;;;;;0.80;0.80;;;15.80;99.90;;;;;;5026685;28;20229;-72
2023/05/05 06:00:16;;;;;;;0.85;0.85;;;15.80;99.90;;;;;;5014599;28;20223;-71
2023/05/05 06:02:44;;;;;;;0.88;0.88;;;15.70;99.90;;;;;;5018463;28;20212;-72
2023/05/05 06:05:12;;;;;;;0.60;0.60;;;15.70;99.90;;;;;;5023827;28;20727;-71
2023/05/05 06:07:40;;;;;;;1.08;0.63;;;15.80;99.90;;;;;;5025827;28;20651;-72
2023/05/05 06:10:09;;;;;;;0.65;0.63;;;16.00;99.90;;;;;;5025384;28;20235;-72
2023/05/05 06:12:55;;;;;;;1.17;1.08;;;16.20;99.90;;;;;;5061810;22;20223;-63
2023/05/05 06:15:24;;;;;;;1.17;0.95;;;16.30;99.90;;;;;;5045419;28;20214;-63
2023/05/05 06:17:52;;;;;;;0.60;0.50;;;16.50;99.90;;;;;;5042128;28;20258;-63
2023/05/05 06:20:20;;;;;;;0.50;0.40;;;16.70;99.90;;;;;;5041465;28;20223;-63
2023/05/05 06:22:48;;;;;;;0.90;0.90;;;16.80;99.90;;;;;;5027581;28;20698;-63
2023/05/05 06:25:16;;;;;;;0.88;0.68;;;17.10;99.90;;;;;;5024906;28;20300;-62
2023/05/05 06:27:43;;;;;;;0.90;0.73;;;17.20;99.90;;;;;;5022226;28;20240;-62
2023/05/05 06:30:14;;;;;;;1.38;1.27;;;17.10;99.90;;;;;;5029221;28;20311;-62
2023/05/05 06:32:42;;;;;;;0.70;0.50;;;17.00;99.90;;;;;;5030233;28;20262;-63
2023/05/05 06:35:10;;;;;;;2.13;1.23;;;16.90;99.90;;;;;;5025239;28;20204;-62
2023/05/05 06:37:38;;;;;;;0.77;0.77;;;16.80;99.90;;;;;;5030266;28;20208;-63
2023/05/05 06:40:07;;;;;;;1.08;0.80;;;16.80;99.90;;;;;;5018186;28;20221;-63
2023/05/05 06:42:36;;;;;;;1.70;1.60;;;16.70;99.90;;;;;;5026588;28;20220;-63
2023/05/05 06:45:04;;;;;;;1.00;1.00;;;16.70;99.90;;;;;;5022110;28;20219;-63
2023/05/05 06:47:33;;;;;;;1.15;0.88;;;16.80;99.90;;;;;;5023704;28;20201;-63
2023/05/05 06:50:02;;;;;;;1.25;1.00;;;16.80;99.90;;;;;;5027372;28;20252;-63
2023/05/05 06:52:30;;;;;;;0.73;0.70;;;17.00;99.90;;;;;;5027977;28;20223;-63
2023/05/05 06:54:58;;;;;;;1.35;1.25;;;17.10;99.90;;;;;;5011689;28;20196;-63
2023/05/05 06:57:26;;;;;;;1.23;1.10;;;17.20;99.90;;;;;;5026625;28;20300;-62
2023/05/05 06:59:54;;;;;;;1.17;0.90;;;17.30;99.90;;;;;;5025479;28;20576;-65
2023/05/05 07:02:21;;;;;;;1.00;0.90;;;17.30;99.90;;;;;;5030001;28;20307;-63
2023/05/05 07:04:55;;;;;;;0.73;0.73;;;17.40;99.90;;;;;;5026562;28;20224;-63
2023/05/05 07:07:23;;;;;;;1.35;1.15;;;17.50;99.90;;;;;;5030244;28;20204;-63
2023/05/05 07:09:51;;;;;;;1.08;0.77;;;17.70;99.90;;;;;;5027019;28;20223;-63
2023/05/05 07:12:18;;;;;;;1.33;1.23;;;18.00;99.90;;;;;;5023243;28;20251;-63
2023/05/05 07:14:46;;;;;;;2.45;1.33;;;18.30;99.90;;;;;;5022078;28;20209;-63
2023/05/05 07:17:14;;;;;;;1.30;1.20;;;18.40;99.90;;;;;;5024249;28;20200;-63
2023/05/05 07:19:43;;;;;;;1.00;1.00;;;18.60;99.90;;;;;;5024442;28;20266;-63
2023/05/05 07:22:12;;;;;;;1.55;1.40;;;18.70;99.90;;;;;;5018932;28;20224;-63
2023/05/05 07:24:40;;;;;;;2.05;1.42;;;18.90;99.90;;;;;;5021637;28;20291;-64
2023/05/05 07:27:08;;;;;;;0.80;0.80;;;19.00;99.90;;;;;;5027118;28;20212;-64
2023/05/05 07:29:36;;;;;;;0.65;0.60;;;19.20;99.90;;;;;;5024703;28;20292;-65
2023/05/05 07:32:04;;;;;;;1.33;1.23;;;19.50;99.90;;;;;;5029045;28;20220;-64
2023/05/05 07:34:33;;;;;;;0.80;0.70;;;19.60;99.90;;;;;;5023103;28;20205;-64
2023/05/05 07:37:02;;;;;;;0.80;0.68;;;19.90;99.90;;;;;;5024101;28;20210;-64
2023/05/05 07:39:31;;;;;;;1.42;1.33;;;20.00;99.90;;;;;;5023382;28;20212;-64
2023/05/05 07:42:00;;;;;;;1.10;1.00;;;19.90;99.90;;;;;;5023571;28;20316;-65
2023/05/05 07:44:28;;;;;;;4.50;1.10;;;20.00;99.90;;;;;;5025369;28;20281;-64
2023/05/05 07:46:56;;;;;;;1.17;1.08;;;19.90;99.90;;;;;;5024751;28;20292;-64
2023/05/05 07:49:24;;;;;;;0.88;0.88;;;19.80;99.90;;;;;;5029498;28;20289;-64
2023/05/05 07:51:51;;;;;;;2.35;2.15;;;19.70;99.90;;;;;;5026969;28;20229;-64
2023/05/05 07:54:19;;;;;;;1.48;0.80;;;19.70;99.90;;;;;;5030351;28;20206;-64
2023/05/05 07:56:48;;;;;;;0.93;0.80;;;19.70;99.90;;;;;;5024146;28;20631;-64
2023/05/05 07:59:16;;;;;;;0.88;0.88;;;19.90;99.90;;;;;;5027016;28;20784;-64
2023/05/05 08:01:44;;;;;;;2.25;1.65;;;20.10;99.90;;;;;;5025987;28;20233;-64
2023/05/05 08:04:12;;;;;;;1.05;0.82;;;20.30;99.90;;;;;;5026138;28;20212;-64
2023/05/05 08:06:40;;;;;;;1.20;1.10;;;20.50;99.90;;;;;;5028155;28;20746;-64
2023/05/05 08:09:08;;;;;;;0.60;0.60;;;20.60;99.90;;;;;;5027483;28;20257;-65
2023/05/05 08:11:36;;;;;;;1.65;0.88;;;20.70;99.90;;;;;;5023737;28;20738;-64
2023/05/05 08:14:06;;;;;;;0.85;0.60;;;20.70;99.90;;;;;;5022613;28;20286;-65
2023/05/05 08:16:34;;;;;;;1.20;0.90;;;20.90;99.90;;;;;;5025363;28;20243;-64
2023/05/05 08:19:02;;;;;;;1.70;1.60;;;21.20;99.90;;;;;;5021691;28;20218;-64
2023/05/05 08:21:36;;;;;;;1.80;1.42;;;21.50;99.90;;;;;;5028723;28;20240;-65
2023/05/05 08:24:04;;;;;;;1.00;0.80;;;21.70;99.90;;;;;;5026552;28;20308;-65
2023/05/05 08:26:32;;;;;;;1.20;0.70;;;22.00;99.90;;;;;;5026194;28;20210;-64
2023/05/05 08:29:00;;;;;;;0.90;0.85;;;22.10;99.90;;;;;;5029712;28;20206;-64
2023/05/05 08:31:32;;;;;;;2.15;1.20;;;22.20;99.90;;;;;;5028797;28;20321;-65
2023/05/05 08:34:00;;;;;;;0.68;0.68;;;22.40;99.90;;;;;;5026173;28;20272;-64
2023/05/05 08:36:27;;;;;;;1.13;0.93;;;22.60;99.90;;;;;;5025877;28;20215;-64
2023/05/05 08:38:55;;;;;;;1.42;1.33;;;22.60;99.90;;;;;;5023479;28;20215;-64
2023/05/05 08:41:23;;;;;;;0.70;0.60;;;22.70;99.90;;;;;;5028814;28;20214;-64
2023/05/05 08:43:51;;;;;;;1.67;1.50;;;22.60;99.90;;;;;;5025739;28;20276;-65
2023/05/05 08:46:20;;;;;;;1.10;1.10;;;22.50;99.90;;;;;;5027867;28;20310;-64
2023/05/05 08:48:54;;;;;;;1.17;1.02;;;22.50;99.90;;;;;;5026586;28;20206;-64
2023/05/05 08:51:26;;;;;;;1.17;0.88;;;22.80;99.90;;;;;;5026087;28;20228;-64
2023/05/05 08:53:58;;;;;;;0.80;0.65;;;22.80;99.90;;;;;;5025214;28;20253;-64
2023/05/05 08:56:30;;;;;;;1.52;0.88;;;22.70;99.90;;;;;;5024232;28;20230;-64
2023/05/05 08:58:59;;;;;;;0.60;0.50;;;22.80;99.90;;;;;;5020569;28;20217;-64
2023/05/05 09:01:28;;;;;;;1.25;1.15;;;23.00;99.90;;;;;;5024321;28;20264;-64
2023/05/05 09:03:58;;;;;;;0.85;0.73;;;23.30;99.90;;;;;;5024883;28;20210;-64
2023/05/05 09:06:27;;;;;;;0.60;0.50;;;23.60;99.90;;;;;;5027504;28;20222;-64
2023/05/05 09:08:55;;;;;;;1.63;1.52;;;23.70;99.90;;;;;;5027431;28;20227;-65
2023/05/05 09:11:26;;;;;;;1.70;1.02;;;23.80;99.90;;;;;;5027497;28;20210;-64
2023/05/05 09:13:55;;;;;;;1.30;1.05;;;24.00;99.90;;;;;;5023676;28;20211;-65
2023/05/05 09:16:23;;;;;;;0.80;0.80;;;24.10;99.90;;;;;;5020641;28;20209;-65
2023/05/05 09:18:50;;;;;;;0.98;0.90;;;24.20;99.90;;;;;;5025470;28;20215;-65
2023/05/05 09:21:21;;;;;;;1.15;1.05;;;24.20;99.90;;;;;;5028224;28;20212;-65
2023/05/05 09:24:04;;;;;;;1.10;0.82;;;24.30;99.90;;;;;;5026900;28;20246;-65
2023/05/05 09:26:38;;;;;;;0.80;0.80;;;24.50;99.90;;;;;;5025599;28;20565;-64
2023/05/05 09:29:06;;;;;;;0.80;0.80;;;24.60;99.90;;;;;;5023062;28;20571;-64
2023/05/05 09:31:36;;;;;;;0.80;0.80;;;25.00;99.90;;;;;;5025488;28;20310;-65
2023/05/05 09:34:14;;;;;;;0.90;0.80;;;25.00;99.90;;;;;;5021472;28;20221;-64
2023/05/05 09:36:46;;;;;;;1.17;1.08;;;25.00;99.90;;;;;;5025769;28;20243;-65
2023/05/05 09:39:16;;;;;;;1.00;1.00;;;25.10;99.90;;;;;;5021258;28;20242;-65
2023/05/05 09:41:44;;;;;;;1.23;1.13;;;25.30;99.90;;;;;;5025405;28;20227;-64
2023/05/05 09:44:14;;;;;;;1.40;1.30;;;25.60;99.90;;;;;;5019791;28;20204;-65
2023/05/05 09:46:50;;;;;;;1.30;1.20;;;25.50;99.90;;;;;;5026904;28;20259;-65
2023/05/05 09:49:22;;;;;;;1.67;1.10;;;25.50;99.90;;;;;;5019289;28;20209;-65
2023/05/05 09:51:51;;;;;;;0.70;0.60;;;25.70;99.90;;;;;;5025653;28;20228;-65
2023/05/05 09:54:23;;;;;;;0.70;0.65;;;25.70;99.90;;;;;;5026114;28;20208;-65
2023/05/05 09:56:52;;;;;;;0.63;0.57;;;25.50;99.90;;;;;;5024137;28;20242;-64
2023/05/05 09:59:20;;;;;;;0.80;0.50;;;25.50;99.90;;;;;;5022282;28;20222;-64
2023/05/05 10:01:48;;;;;;;0.73;0.70;;;25.50;99.90;;;;;;5025107;28;20236;-64
2023/05/05 10:04:24;;;;;;;1.15;0.60;;;25.50;99.90;;;;;;5024692;28;20223;-65
2023/05/05 10:06:55;;;;;;;0.88;0.73;;;25.70;99.90;;;;;;5022743;28;20289;-64
2023/05/05 10:09:23;;;;;;;0.80;0.65;;;25.90;99.90;;;;;;5025000;28;20259;-65
2023/05/05 10:11:51;;;;;;;0.60;0.40;;;26.10;99.90;;;;;;5023742;28;20665;-64
2023/05/05 10:14:20;;;;;;;1.00;0.70;;;26.20;99.90;;;;;;5021276;28;20260;-65
2023/05/05 10:16:50;;;;;;;0.75;0.52;;;26.20;99.90;;;;;;5021740;28;20365;-65
2023/05/05 10:19:19;;;;;;;0.85;0.45;;;26.20;99.60;;;;;;5025668;28;20212;-65
2023/05/05 10:21:50;;;;;;;0.60;0.40;;;26.10;99.10;;;;;;5023644;28;20254;-64
2023/05/05 10:24:27;;;;;;;1.50;0.90;;;26.20;99.20;;;;;;5026056;28;20284;-64
2023/05/05 10:26:57;;;;;;;0.90;0.50;;;26.40;99.90;;;;;;5024001;28;20238;-65
2023/05/05 10:29:36;;;;;;;0.70;0.40;;;26.90;99.90;;;;;;5017095;28;20258;-64
2023/05/05 10:32:11;;;;;;;0.60;0.40;;;26.80;98.50;;;;;;5025874;28;20307;-64
2023/05/05 10:35:02;;;;;;;0.60;0.45;;;26.60;98.30;;;;;;5020989;28;20235;-65
2023/05/05 10:37:30;;;;;;;0.60;0.43;;;26.50;98.00;;;;;;5020049;28;20208;-65
2023/05/05 10:40:01;;;;;;;0.60;0.40;;;26.50;97.90;;;;;;5023607;28;20240;-65
2023/05/05 10:42:30;;;;;;;1.95;0.60;;;26.50;97.70;;;;;;5023624;28;20594;-64
2023/05/05 10:44:58;;;;;;;0.60;0.40;;;26.40;96.50;;;;;;5021427;28;20903;-64
2023/05/05 10:47:27;;;;;;;0.50;0.30;;;26.40;95.00;;;;;;5023805;28;20697;-64
2023/05/05 10:49:59;;;;;;;0.60;0.40;;;26.00;94.50;;;;;;5027002;28;20314;-65
2023/05/05 10:52:36;;;;;;;0.60;0.40;;;25.90;95.20;;;;;;5024410;28;20219;-64
2023/05/05 10:55:12;;;;;;;0.60;0.40;;;25.90;94.80;;;;;;5024138;28;20217;-64
2023/05/05 10:57:43;;;;;;;0.60;0.40;;;25.70;94.00;;;;;;5027041;28;20200;-64
2023/05/05 11:00:48;;;;;;;0.60;0.40;;;25.60;93.20;;;;;;5020856;28;20776;-64
2023/05/05 11:03:23;;;;;;;0.60;0.40;;;25.60;92.70;;;;;;5021226;28;20239;-64
2023/05/05 11:06:11;;;;;;;1.00;0.80;;;25.60;93.00;;;;;;5027206;28;20210;-65
2023/05/05 11:08:40;;;;;;;0.60;0.30;;;25.80;91.20;;;;;;5015650;28;20207;-64
2023/05/05 11:11:11;;;;;;;0.50;0.30;;;25.70;91.30;;;;;;5023919;28;20294;-64
2023/05/05 11:13:40;;;;;;;0.60;0.40;;;25.70;90.40;;;;;;5025478;28;20224;-64
2023/05/05 11:16:43;;;;;;;0.60;0.30;;;25.90;90.70;;;;;;5022298;28;20275;-65
2023/05/05 11:19:47;;;;;;;0.60;0.40;;;26.20;89.60;;;;;;5020841;28;20223;-64
2023/05/05 11:22:16;;;;;;;0.60;0.50;;;26.50;87.40;;;;;;5023816;28;20773;-65
2023/05/05 11:24:44;;;;;;;0.60;0.38;;;26.80;89.70;;;;;;5022967;28;20211;-65
2023/05/05 11:27:13;;;;;;;0.60;0.40;;;27.20;89.10;;;;;;5023437;28;20621;-65
2023/05/05 11:30:07;;;;;;;0.52;0.40;;;27.60;87.20;;;;;;5023326;28;20207;-64
2023/05/05 11:32:36;;;;;;;0.60;0.50;;;27.50;86.40;;;;;;5017619;28;20236;-64
2023/05/05 11:35:05;;;;;;;0.60;0.40;;;27.10;89.20;;;;;;5020517;28;20291;-65
2023/05/05 11:37:33;;;;;;;0.60;0.40;;;27.20;87.40;;;;;;5020535;28;20288;-64
2023/05/05 11:40:09;;;;;;;0.60;0.40;;;27.40;84.90;;;;;;5025944;28;20203;-64
2023/05/05 11:42:39;;;;;;;0.60;0.30;;;27.30;84.30;;;;;;5023808;28;20737;-64
2023/05/05 11:45:20;;;;;;;0.70;0.50;;;27.10;84.50;;;;;;5019440;28;20214;-64
2023/05/05 11:47:48;;;;;;;0.50;0.40;;;27.10;85.80;;;;;;5023496;28;20218;-65
2023/05/05 11:50:20;;;;;;;0.57;0.40;;;27.60;89.70;;;;;;5021986;28;20213;-65
2023/05/05 11:52:48;;;;;;;0.60;0.30;;;28.20;87.10;;;;;;5020936;28;20224;-65
2023/05/05 11:55:21;;;;;;;0.60;0.40;;;28.30;84.60;;;;;;5025133;28;20287;-65
2023/05/05 11:57:51;;;;;;;0.60;0.40;;;28.40;83.70;;;;;;5022630;28;20287;-65
2023/05/05 12:00:19;;;;;;;0.60;0.40;;;28.50;83.90;;;;;;5024091;28;20228;-65
2023/05/05 12:02:56;;;;;;;0.60;0.40;;;28.20;84.10;;;;;;5023382;28;20233;-65
2023/05/05 12:05:24;;;;;;;0.60;0.40;;;28.80;85.00;;;;;;5022330;28;20552;-64
2023/05/05 12:07:57;;;;;;;0.60;0.40;;;28.50;83.20;;;;;;5019409;28;20626;-64
2023/05/05 12:10:25;;;;;;;0.60;0.40;;;27.80;84.00;;;;;;5020799;28;20584;-64
2023/05/05 12:12:54;;;;;;;0.60;0.40;;;27.60;85.70;;;;;;5023806;28;20264;-65
2023/05/05 12:15:30;;;;;;;0.60;0.40;;;27.40;86.00;;;;;;5025642;28;20204;-65
2023/05/05 12:17:58;;;;;;;1.15;0.57;;;27.80;87.00;;;;;;5021395;28;20231;-65
2023/05/05 12:20:31;;;;;;;0.60;0.40;;;28.20;84.70;;;;;;5027971;28;20240;-65
2023/05/05 12:23:01;;;;;;;0.60;0.40;;;28.80;82.20;;;;;;5025892;28;20244;-65
2023/05/05 12:25:35;;;;;;;0.70;0.60;;;29.10;79.30;;;;;;5024200;28;20205;-65
2023/05/05 12:28:05;;;;;;;0.60;0.40;;;29.50;81.30;;;;;;5027310;28;20204;-65
2023/05/05 12:30:33;;;;;;;0.60;0.40;;;29.00;80.10;;;;;;5025927;28;20990;-64
2023/05/05 12:33:02;;;;;;;0.60;0.30;;;28.60;78.50;;;;;;5027663;28;20220;-65
2023/05/05 12:35:32;;;;;;;0.52;0.40;;;28.60;80.50;;;;;;5023061;28;20222;-65
2023/05/05 12:38:00;;;;;;;0.60;0.40;;;29.10;80.50;;;;;;5025742;28;20291;-65
2023/05/05 12:40:48;;;;;;;0.60;0.40;;;29.40;78.00;;;;;;5022960;28;21354;-65
2023/05/05 12:43:28;;;;;;;0.73;0.50;;;29.40;77.50;;;;;;5019590;28;20234;-65
2023/05/05 12:46:04;;;;;;;0.70;0.40;;;29.20;78.60;;;;;;5024309;28;20569;-65
2023/05/05 12:48:32;;;;;;;0.60;0.40;;;29.30;77.70;;;;;;5025869;28;20295;-65
2023/05/05 12:51:21;;;;;;;0.60;0.40;;;29.60;77.50;;;;;;5024718;28;20206;-65
2023/05/05 12:54:02;;;;;;;0.60;0.50;;;29.80;78.20;;;;;;5026971;28;20291;-64
2023/05/05 12:56:34;;;;;;;0.60;0.40;;;30.20;77.00;;;;;;5026867;28;21924;-65
2023/05/05 12:59:06;;;;;;;0.60;0.40;;;29.90;75.90;;;;;;5021924;28;20286;-65
2023/05/05 13:01:35;;;;;;;0.55;0.35;;;29.20;77.20;;;;;;5028150;28;20651;-65
2023/05/05 13:04:10;;;;;;;0.60;0.40;;;28.60;78.00;;;;;;5020645;28;20240;-65
2023/05/05 13:06:39;;;;;;;0.60;0.45;;;28.00;79.80;;;;;;5027383;28;20208;-65